createdAt,value
2019-03-24T00:00:05.018Z,1028.94
2019-03-24T00:01:05.115Z,1028.94
2019-03-24T00:02:05.050Z,1028.92
2019-03-24T00:03:05.090Z,1028.9
2019-03-24T00:04:05.113Z,1028.93
2019-03-24T00:05:05.117Z,1028.89
2019-03-24T00:06:05.028Z,1028.89
2019-03-24T00:07:04.836Z,1028.89
2019-03-24T00:08:05.045Z,1028.92
2019-03-24T00:09:05.043Z,1028.9
2019-03-24T00:10:05.173Z,1028.9
2019-03-24T00:11:05.191Z,1028.94
2019-03-24T00:12:05.082Z,1028.95
2019-03-24T00:13:04.961Z,1028.94
2019-03-24T00:14:04.841Z,1028.93
2019-03-24T00:15:04.915Z,1028.94
2019-03-24T00:16:04.873Z,1028.87
2019-03-24T00:17:05.037Z,1028.87
2019-03-24T00:18:04.883Z,1028.89
2019-03-24T00:19:05.013Z,1028.86
2019-03-24T00:20:04.937Z,1028.89
2019-03-24T00:21:04.953Z,1028.92
2019-03-24T00:22:05.041Z,1028.86
2019-03-24T00:23:04.945Z,1028.85
2019-03-24T00:24:05.015Z,1028.81
2019-03-24T00:25:05.057Z,1028.83
2019-03-24T00:26:05.039Z,1028.8
2019-03-24T00:27:05.097Z,1028.79
2019-03-24T00:28:05.255Z,1028.78
2019-03-24T00:29:05.008Z,1028.76
2019-03-24T00:30:04.861Z,1028.81
2019-03-24T00:31:05.003Z,1028.81
2019-03-24T00:32:04.887Z,1028.78
2019-03-24T00:33:04.908Z,1028.79
2019-03-24T00:34:04.935Z,1028.78
2019-03-24T00:35:05.005Z,1028.8
2019-03-24T00:36:04.950Z,1028.78
2019-03-24T00:37:04.966Z,1028.79
2019-03-24T00:38:05.070Z,1028.8
2019-03-24T00:39:05.009Z,1028.77
2019-03-24T00:40:05.056Z,1028.79
2019-03-24T00:41:05.013Z,1028.77
2019-03-24T00:42:05.025Z,1028.77
2019-03-24T00:43:05.142Z,1028.75
2019-03-24T00:44:05.107Z,1028.78
2019-03-24T00:45:05.053Z,1028.73
2019-03-24T00:46:04.857Z,1028.71
2019-03-24T00:47:04.877Z,1028.68
2019-03-24T00:48:04.830Z,1028.7
2019-03-24T00:49:04.864Z,1028.68
2019-03-24T00:50:05.050Z,1028.7
2019-03-24T00:51:04.869Z,1028.72
2019-03-24T00:52:04.907Z,1028.69
2019-03-24T00:53:04.860Z,1028.73
2019-03-24T00:54:04.914Z,1028.73
2019-03-24T00:55:05.130Z,1028.74
2019-03-24T00:56:04.985Z,1028.7
2019-03-24T00:57:05.068Z,1028.72
2019-03-24T00:58:04.976Z,1028.73
2019-03-24T00:59:05.009Z,1028.72
2019-03-24T01:00:05.042Z,1028.69
2019-03-24T01:01:04.994Z,1028.72
2019-03-24T01:02:05.043Z,1028.68
2019-03-24T01:03:04.954Z,1028.67
2019-03-24T01:04:04.942Z,1028.62
2019-03-24T01:05:04.955Z,1028.65
2019-03-24T01:06:04.869Z,1028.6
2019-03-24T01:07:04.899Z,1028.63
2019-03-24T01:08:04.905Z,1028.62
2019-03-24T01:09:04.982Z,1028.61
2019-03-24T01:10:04.947Z,1028.6
2019-03-24T01:11:04.980Z,1028.59
2019-03-24T01:12:04.960Z,1028.6
2019-03-24T01:13:05.059Z,1028.54
2019-03-24T01:14:04.980Z,1028.55
2019-03-24T01:15:05.004Z,1028.52
2019-03-24T01:16:05.115Z,1028.49
2019-03-24T01:17:05.021Z,1028.48
2019-03-24T01:18:05.077Z,1028.51
2019-03-24T01:19:05.149Z,1028.45
2019-03-24T01:20:05.123Z,1028.41
2019-03-24T01:21:04.813Z,1028.35
2019-03-24T01:22:04.942Z,1028.33
2019-03-24T01:23:04.830Z,1028.33
2019-03-24T01:24:04.819Z,1028.32
2019-03-24T01:25:04.902Z,1028.33
2019-03-24T01:26:04.882Z,1028.29
2019-03-24T01:27:04.997Z,1028.29
2019-03-24T01:28:04.973Z,1028.26
2019-03-24T01:29:05.061Z,1028.28
2019-03-24T01:30:04.986Z,1028.26
2019-03-24T01:31:04.914Z,1028.28
2019-03-24T01:32:05.030Z,1028.28
2019-03-24T01:33:05.129Z,1028.28
2019-03-24T01:34:05.306Z,1028.28
2019-03-24T01:35:04.989Z,1028.28
2019-03-24T01:36:05.112Z,1028.28
2019-03-24T01:37:05.050Z,1028.27
2019-03-24T01:38:05.053Z,1028.26
2019-03-24T01:39:04.885Z,1028.26
2019-03-24T01:40:04.824Z,1028.28
2019-03-24T01:41:04.856Z,1028.3
2019-03-24T01:42:04.847Z,1028.29
2019-03-24T01:43:04.930Z,1028.26
2019-03-24T01:44:04.868Z,1028.29
2019-03-24T01:45:04.899Z,1028.26
2019-03-24T01:46:04.909Z,1028.25
2019-03-24T01:47:04.921Z,1028.28
2019-03-24T01:48:05.019Z,1028.26
2019-03-24T01:49:05.052Z,1028.27
2019-03-24T01:50:05.103Z,1028.29
2019-03-24T01:51:05.020Z,1028.26
2019-03-24T01:52:05.000Z,1028.23
2019-03-24T01:53:05.111Z,1028.22
2019-03-24T01:54:05.039Z,1028.24
2019-03-24T01:55:05.082Z,1028.22
2019-03-24T01:56:05.216Z,1028.24
2019-03-24T01:57:04.794Z,1028.23
2019-03-24T01:58:04.782Z,1028.2
2019-03-24T01:59:04.818Z,1028.19
2019-03-24T02:00:04.835Z,1028.2
2019-03-24T02:01:04.893Z,1028.18
2019-03-24T02:02:04.839Z,1028.17
2019-03-24T02:03:04.863Z,1028.17
2019-03-24T02:04:04.859Z,1028.19
2019-03-24T02:05:04.902Z,1028.19
2019-03-24T02:06:05.110Z,1028.16
2019-03-24T02:07:05.001Z,1028.16
2019-03-24T02:08:05.022Z,1028.16
2019-03-24T02:09:04.948Z,1028.17
2019-03-24T02:10:04.962Z,1028.17
2019-03-24T02:11:04.973Z,1028.18
2019-03-24T02:12:05.009Z,1028.19
2019-03-24T02:13:05.006Z,1028.18
2019-03-24T02:14:04.985Z,1028.17
2019-03-24T02:15:05.010Z,1028.21
2019-03-24T02:16:09.999Z,1028.19
2019-03-24T02:17:04.911Z,1028.19
2019-03-24T02:18:04.841Z,1028.19
2019-03-24T02:19:04.875Z,1028.16
2019-03-24T02:20:04.892Z,1028.17
2019-03-24T02:21:04.884Z,1028.17
2019-03-24T02:22:04.873Z,1028.15
2019-03-24T02:23:04.967Z,1028.15
2019-03-24T02:24:04.937Z,1028.14
2019-03-24T02:25:04.920Z,1028.14
2019-03-24T02:26:04.954Z,1028.06
2019-03-24T02:27:05.079Z,1028.08
2019-03-24T02:28:05.019Z,1028.05
2019-03-24T02:29:04.977Z,1028.04
2019-03-24T02:30:05.022Z,1028
2019-03-24T02:31:05.044Z,1028.05
2019-03-24T02:32:05.028Z,1028.03
2019-03-24T02:33:05.072Z,1028.01
2019-03-24T02:34:04.853Z,1028.01
2019-03-24T02:35:04.794Z,1028.03
2019-03-24T02:36:04.815Z,1028.08
2019-03-24T02:37:04.900Z,1028.02
2019-03-24T02:38:04.907Z,1028.05
2019-03-24T02:39:04.889Z,1028.08
2019-03-24T02:40:04.853Z,1027.99
2019-03-24T02:41:04.926Z,1027.98
2019-03-24T02:42:04.900Z,1027.96
2019-03-24T02:43:04.907Z,1027.98
2019-03-24T02:44:04.921Z,1027.93
2019-03-24T02:45:05.043Z,1027.94
2019-03-24T02:46:05.087Z,1027.97
2019-03-24T02:47:05.139Z,1027.97
2019-03-24T02:48:05.110Z,1027.96
2019-03-24T02:49:04.966Z,1027.97
2019-03-24T02:50:05.035Z,1027.98
2019-03-24T02:51:05.047Z,1027.98
2019-03-24T02:52:04.803Z,1027.99
2019-03-24T02:53:04.761Z,1027.99
2019-03-24T02:54:04.854Z,1028.01
2019-03-24T02:55:04.862Z,1028
2019-03-24T02:56:04.869Z,1028
2019-03-24T02:57:04.847Z,1028.04
2019-03-24T02:58:04.936Z,1028.03
2019-03-24T02:59:04.911Z,1028.05
2019-03-24T03:00:05.354Z,1028.05
2019-03-24T03:01:05.234Z,1028.05
2019-03-24T03:02:04.935Z,1028.05
2019-03-24T03:03:04.963Z,1028.04
2019-03-24T03:04:05.090Z,1028.06
2019-03-24T03:05:04.772Z,1028.02
2019-03-24T03:06:04.981Z,1028.02
2019-03-24T03:07:05.121Z,1028.04
2019-03-24T03:08:05.114Z,1028.03
2019-03-24T03:09:05.076Z,1028
2019-03-24T03:10:05.083Z,1028.02
2019-03-24T03:11:04.742Z,1028.03
2019-03-24T03:12:04.981Z,1028.08
2019-03-24T03:13:04.799Z,1028.08
2019-03-24T03:14:04.940Z,1028.07
2019-03-24T03:15:04.819Z,1028.1
2019-03-24T03:16:04.822Z,1028.06
2019-03-24T03:17:04.850Z,1028.1
2019-03-24T03:18:04.865Z,1028.06
2019-03-24T03:19:04.978Z,1028.05
2019-03-24T03:20:04.890Z,1028.01
2019-03-24T03:21:04.997Z,1028.01
2019-03-24T03:22:05.283Z,1027.98
2019-03-24T03:23:04.959Z,1027.99
2019-03-24T03:24:04.927Z,1027.99
2019-03-24T03:25:04.984Z,1027.96
2019-03-24T03:26:04.957Z,1027.99
2019-03-24T03:27:05.018Z,1027.93
2019-03-24T03:28:04.992Z,1027.94
2019-03-24T03:29:04.912Z,1027.93
2019-03-24T03:30:04.938Z,1027.92
2019-03-24T03:31:04.900Z,1027.87
2019-03-24T03:32:04.840Z,1027.84
2019-03-24T03:33:05.033Z,1027.86
2019-03-24T03:34:04.863Z,1027.82
2019-03-24T03:35:05.053Z,1027.85
2019-03-24T03:36:04.989Z,1027.81
2019-03-24T03:37:04.996Z,1027.81
2019-03-24T03:38:04.906Z,1027.8
2019-03-24T03:39:05.065Z,1027.81
2019-03-24T03:40:04.970Z,1027.82
2019-03-24T03:41:05.044Z,1027.78
2019-03-24T03:42:05.282Z,1027.82
2019-03-24T03:43:05.039Z,1027.8
2019-03-24T03:44:05.821Z,1027.8
2019-03-24T03:45:05.024Z,1027.81
2019-03-24T03:46:05.003Z,1027.8
2019-03-24T03:47:05.094Z,1027.74
2019-03-24T03:48:05.033Z,1027.77
2019-03-24T03:49:04.769Z,1027.73
2019-03-24T03:50:04.769Z,1027.74
2019-03-24T03:51:04.798Z,1027.7
2019-03-24T03:52:04.850Z,1027.69
2019-03-24T03:53:04.821Z,1027.65
2019-03-24T03:54:04.814Z,1027.7
2019-03-24T03:55:05.078Z,1027.69
2019-03-24T03:56:04.961Z,1027.66
2019-03-24T03:57:04.835Z,1027.66
2019-03-24T03:58:04.914Z,1027.65
2019-03-24T03:59:04.899Z,1027.67
2019-03-24T04:00:04.891Z,1027.65
2019-03-24T04:01:04.955Z,1027.66
2019-03-24T04:02:05.131Z,1027.64
2019-03-24T04:03:05.054Z,1027.61
2019-03-24T04:04:05.274Z,1027.64
2019-03-24T04:05:05.285Z,1027.64
2019-03-24T04:06:04.963Z,1027.63
2019-03-24T04:07:05.120Z,1027.66
2019-03-24T04:08:04.786Z,1027.62
2019-03-24T04:09:04.804Z,1027.58
2019-03-24T04:10:04.769Z,1027.57
2019-03-24T04:11:04.816Z,1027.55
2019-03-24T04:12:04.797Z,1027.56
2019-03-24T04:13:04.809Z,1027.57
2019-03-24T04:14:04.960Z,1027.56
2019-03-24T04:15:04.893Z,1027.54
2019-03-24T04:16:04.945Z,1027.56
2019-03-24T04:17:08.376Z,1027.51
2019-03-24T04:18:04.915Z,1027.52
2019-03-24T04:19:04.943Z,1027.51
2019-03-24T04:20:04.948Z,1027.48
2019-03-24T04:21:05.024Z,1027.51
2019-03-24T04:22:04.945Z,1027.5
2019-03-24T04:23:05.142Z,1027.5
2019-03-24T04:24:04.980Z,1027.49
2019-03-24T04:25:04.976Z,1027.49
2019-03-24T04:26:05.354Z,1027.46
2019-03-24T04:27:05.009Z,1027.5
2019-03-24T04:28:04.791Z,1027.48
2019-03-24T04:29:04.735Z,1027.5
2019-03-24T04:30:05.030Z,1027.5
2019-03-24T04:31:04.863Z,1027.54
2019-03-24T04:32:04.882Z,1027.52
2019-03-24T04:33:04.757Z,1027.52
2019-03-24T04:34:04.813Z,1027.49
2019-03-24T04:35:04.846Z,1027.51
2019-03-24T04:36:04.850Z,1027.52
2019-03-24T04:37:04.912Z,1027.5
2019-03-24T04:38:04.934Z,1027.49
2019-03-24T04:39:05.008Z,1027.5
2019-03-24T04:40:05.198Z,1027.52
2019-03-24T04:41:05.033Z,1027.55
2019-03-24T04:42:04.927Z,1027.54
2019-03-24T04:43:04.936Z,1027.56
2019-03-24T04:44:05.052Z,1027.55
2019-03-24T04:45:04.982Z,1027.54
2019-03-24T04:46:04.971Z,1027.57
2019-03-24T04:47:04.806Z,1027.56
2019-03-24T04:48:05.195Z,1027.55
2019-03-24T04:49:04.758Z,1027.6
2019-03-24T04:50:04.850Z,1027.6
2019-03-24T04:51:04.871Z,1027.58
2019-03-24T04:52:04.843Z,1027.59
2019-03-24T04:53:04.927Z,1027.6
2019-03-24T04:54:04.911Z,1027.63
2019-03-24T04:55:04.881Z,1027.64
2019-03-24T04:56:04.973Z,1027.67
2019-03-24T04:57:04.965Z,1027.64
2019-03-24T04:58:04.916Z,1027.65
2019-03-24T04:59:04.924Z,1027.6
2019-03-24T05:00:04.976Z,1027.62
2019-03-24T05:01:04.922Z,1027.6
2019-03-24T05:02:05.096Z,1027.6
2019-03-24T05:03:05.016Z,1027.65
2019-03-24T05:04:05.061Z,1027.63
2019-03-24T05:05:04.719Z,1027.64
2019-03-24T05:06:04.788Z,1027.61
2019-03-24T05:07:04.791Z,1027.62
2019-03-24T05:08:04.819Z,1027.6
2019-03-24T05:09:04.939Z,1027.64
2019-03-24T05:10:04.784Z,1027.59
2019-03-24T05:11:04.824Z,1027.65
2019-03-24T05:12:04.975Z,1027.63
2019-03-24T05:13:04.804Z,1027.69
2019-03-24T05:14:04.937Z,1027.68
2019-03-24T05:15:04.852Z,1027.72
2019-03-24T05:16:04.856Z,1027.74
2019-03-24T05:17:05.030Z,1027.72
2019-03-24T05:18:04.973Z,1027.75
2019-03-24T05:19:04.893Z,1027.79
2019-03-24T05:20:04.901Z,1027.78
2019-03-24T05:21:04.932Z,1027.77
2019-03-24T05:22:05.034Z,1027.74
2019-03-24T05:23:04.780Z,1027.76
2019-03-24T05:24:04.823Z,1027.71
2019-03-24T05:25:04.773Z,1027.75
2019-03-24T05:26:04.853Z,1027.78
2019-03-24T05:27:04.893Z,1027.74
2019-03-24T05:28:04.894Z,1027.8
2019-03-24T05:29:04.891Z,1027.74
2019-03-24T05:30:05.260Z,1027.73
2019-03-24T05:31:05.362Z,1027.76
2019-03-24T05:32:04.859Z,1027.77
2019-03-24T05:33:04.885Z,1027.76
2019-03-24T05:34:04.937Z,1027.76
2019-03-24T05:35:05.932Z,1027.78
2019-03-24T05:36:04.989Z,1027.75
2019-03-24T05:37:04.969Z,1027.77
2019-03-24T05:38:04.959Z,1027.75
2019-03-24T05:39:05.056Z,1027.73
2019-03-24T05:40:05.061Z,1027.71
2019-03-24T05:41:04.755Z,1027.74
2019-03-24T05:42:04.813Z,1027.71
2019-03-24T05:43:04.712Z,1027.72
2019-03-24T05:44:04.831Z,1027.72
2019-03-24T05:45:04.875Z,1027.73
2019-03-24T05:46:04.779Z,1027.71
2019-03-24T05:47:04.772Z,1027.74
2019-03-24T05:48:04.831Z,1027.72
2019-03-24T05:49:04.837Z,1027.76
2019-03-24T05:50:04.935Z,1027.77
2019-03-24T05:51:04.872Z,1027.71
2019-03-24T05:52:04.980Z,1027.73
2019-03-24T05:53:04.885Z,1027.73
2019-03-24T05:54:04.993Z,1027.69
2019-03-24T05:55:05.055Z,1027.73
2019-03-24T05:56:04.928Z,1027.67
2019-03-24T05:57:04.931Z,1027.73
2019-03-24T05:58:04.837Z,1027.72
2019-03-24T05:59:04.837Z,1027.7
2019-03-24T06:00:04.768Z,1027.68
2019-03-24T06:01:04.858Z,1027.7
2019-03-24T06:02:04.882Z,1027.72
2019-03-24T06:03:04.799Z,1027.74
2019-03-24T06:04:04.812Z,1027.73
2019-03-24T06:05:04.830Z,1027.72
2019-03-24T06:06:04.856Z,1027.73
2019-03-24T06:07:04.868Z,1027.71
2019-03-24T06:08:04.855Z,1027.71
2019-03-24T06:09:04.886Z,1027.7
2019-03-24T06:10:04.946Z,1027.71
2019-03-24T06:11:04.891Z,1027.75
2019-03-24T06:12:05.033Z,1027.76
2019-03-24T06:13:05.026Z,1027.75
2019-03-24T06:14:04.941Z,1027.76
2019-03-24T06:15:04.977Z,1027.79
2019-03-24T06:16:05.021Z,1027.76
2019-03-24T06:17:04.818Z,1027.75
2019-03-24T06:18:04.779Z,1027.73
2019-03-24T06:19:04.737Z,1027.76
2019-03-24T06:20:04.723Z,1027.74
2019-03-24T06:21:04.874Z,1027.74
2019-03-24T06:22:04.824Z,1027.72
2019-03-24T06:23:04.832Z,1027.69
2019-03-24T06:24:04.796Z,1027.71
2019-03-24T06:25:04.823Z,1027.66
2019-03-24T06:26:04.982Z,1027.68
2019-03-24T06:27:04.899Z,1027.65
2019-03-24T06:28:04.929Z,1027.63
2019-03-24T06:29:04.868Z,1027.68
2019-03-24T06:30:04.893Z,1027.67
2019-03-24T06:31:04.975Z,1027.66
2019-03-24T06:32:04.877Z,1027.66
2019-03-24T06:33:05.099Z,1027.63
2019-03-24T06:34:04.922Z,1027.62
2019-03-24T06:35:05.219Z,1027.6
2019-03-24T06:36:05.213Z,1027.59
2019-03-24T06:37:04.777Z,1027.59
2019-03-24T06:38:04.811Z,1027.58
2019-03-24T06:39:04.803Z,1027.59
2019-03-24T06:40:04.775Z,1027.58
2019-03-24T06:41:04.847Z,1027.61
2019-03-24T06:42:04.800Z,1027.61
2019-03-24T06:43:04.830Z,1027.62
2019-03-24T06:44:04.911Z,1027.61
2019-03-24T06:45:04.919Z,1027.57
2019-03-24T06:46:04.898Z,1027.62
2019-03-24T06:47:04.890Z,1027.68
2019-03-24T06:48:04.910Z,1027.65
2019-03-24T06:49:04.961Z,1027.64
2019-03-24T06:50:05.281Z,1027.66
2019-03-24T06:51:04.955Z,1027.68
2019-03-24T06:52:04.839Z,1027.7
2019-03-24T06:53:04.695Z,1027.71
2019-03-24T06:54:04.875Z,1027.74
2019-03-24T06:55:04.712Z,1027.74
2019-03-24T06:56:04.679Z,1027.79
2019-03-24T06:57:04.835Z,1027.75
2019-03-24T06:58:04.759Z,1027.79
2019-03-24T06:59:04.785Z,1027.78
2019-03-24T07:00:04.796Z,1027.8
2019-03-24T07:01:04.810Z,1027.82
2019-03-24T07:02:04.832Z,1027.8
2019-03-24T07:03:05.077Z,1027.84
2019-03-24T07:04:04.919Z,1027.79
2019-03-24T07:05:04.855Z,1027.77
2019-03-24T07:06:05.084Z,1027.77
2019-03-24T07:07:04.857Z,1027.77
2019-03-24T07:08:05.104Z,1027.8
2019-03-24T07:09:05.088Z,1027.79
2019-03-24T07:10:04.729Z,1027.78
2019-03-24T07:11:14.049Z,1027.8
2019-03-24T07:12:04.759Z,1027.77
2019-03-24T07:13:04.751Z,1027.76
2019-03-24T07:14:04.838Z,1027.77
2019-03-24T07:15:04.797Z,1027.77
2019-03-24T07:16:04.812Z,1027.8
2019-03-24T07:17:04.808Z,1027.81
2019-03-24T07:18:09.094Z,1027.81
2019-03-24T07:19:04.820Z,1027.82
2019-03-24T07:20:04.914Z,1027.81
2019-03-24T07:21:04.875Z,1027.81
2019-03-24T07:22:07.423Z,1027.81
2019-03-24T07:23:04.888Z,1027.78
2019-03-24T07:24:04.931Z,1027.81
2019-03-24T07:25:04.935Z,1027.8
2019-03-24T07:26:05.030Z,1027.82
2019-03-24T07:27:04.671Z,1027.81
2019-03-24T07:28:04.665Z,1027.8
2019-03-24T07:29:04.716Z,1027.81
2019-03-24T07:30:04.728Z,1027.83
2019-03-24T07:31:04.745Z,1027.83
2019-03-24T07:32:04.859Z,1027.81
2019-03-24T07:33:04.766Z,1027.84
2019-03-24T07:34:04.882Z,1027.76
2019-03-24T07:35:04.811Z,1027.77
2019-03-24T07:36:04.860Z,1027.79
2019-03-24T07:37:04.834Z,1027.78
2019-03-24T07:38:04.836Z,1027.81
2019-03-24T07:39:04.862Z,1027.81
2019-03-24T07:40:05.289Z,1027.78
2019-03-24T07:41:04.942Z,1027.79
2019-03-24T07:42:05.805Z,1027.8
2019-03-24T07:43:04.888Z,1027.82
2019-03-24T07:44:04.727Z,1027.82
2019-03-24T07:45:04.738Z,1027.83
2019-03-24T07:46:04.740Z,1027.79
2019-03-24T07:47:04.762Z,1027.79
2019-03-24T07:48:04.781Z,1027.79
2019-03-24T07:49:04.755Z,1027.78
2019-03-24T07:50:04.879Z,1027.78
2019-03-24T07:51:04.843Z,1027.79
2019-03-24T07:52:04.807Z,1027.75
2019-03-24T07:53:04.832Z,1027.76
2019-03-24T07:54:04.887Z,1027.77
2019-03-24T07:55:04.825Z,1027.71
2019-03-24T07:56:04.859Z,1027.7
2019-03-24T07:57:04.907Z,1027.69
2019-03-24T07:58:04.874Z,1027.67
2019-03-24T07:59:04.882Z,1027.72
2019-03-24T08:00:04.916Z,1027.71
2019-03-24T08:01:04.804Z,1027.67
2019-03-24T08:02:05.036Z,1027.7
2019-03-24T08:03:04.744Z,1027.67
2019-03-24T08:04:06.165Z,1027.64
2019-03-24T08:05:04.731Z,1027.66
2019-03-24T08:06:05.853Z,1027.64
2019-03-24T08:07:04.856Z,1027.63
2019-03-24T08:08:04.750Z,1027.6
2019-03-24T08:09:04.897Z,1027.57
2019-03-24T08:10:04.801Z,1027.6
2019-03-24T08:11:05.101Z,1027.59
2019-03-24T08:12:04.836Z,1027.55
2019-03-24T08:13:04.835Z,1027.56
2019-03-24T08:14:04.851Z,1027.55
2019-03-24T08:15:04.862Z,1027.51
2019-03-24T08:16:04.886Z,1027.48
2019-03-24T08:17:04.904Z,1027.51
2019-03-24T08:18:04.752Z,1027.45
2019-03-24T08:19:04.772Z,1027.48
2019-03-24T08:20:04.719Z,1027.46
2019-03-24T08:21:04.719Z,1027.41
2019-03-24T08:22:04.876Z,1027.42
2019-03-24T08:23:05.169Z,1027.42
2019-03-24T08:24:05.066Z,1027.42
2019-03-24T08:25:04.787Z,1027.41
2019-03-24T08:26:04.813Z,1027.4
2019-03-24T08:27:04.989Z,1027.38
2019-03-24T08:28:04.849Z,1027.39
2019-03-24T08:29:04.867Z,1027.39
2019-03-24T08:30:04.842Z,1027.39
2019-03-24T08:31:04.868Z,1027.4
2019-03-24T08:32:04.888Z,1027.4
2019-03-24T08:33:04.901Z,1027.42
2019-03-24T08:34:04.959Z,1027.41
2019-03-24T08:35:05.076Z,1027.39
2019-03-24T08:36:04.643Z,1027.38
2019-03-24T08:37:04.666Z,1027.4
2019-03-24T08:38:04.669Z,1027.39
2019-03-24T08:39:04.678Z,1027.36
2019-03-24T08:40:04.704Z,1027.35
2019-03-24T08:41:04.793Z,1027.33
2019-03-24T08:42:04.816Z,1027.37
2019-03-24T08:43:04.768Z,1027.33
2019-03-24T08:44:04.768Z,1027.34
2019-03-24T08:45:05.316Z,1027.34
2019-03-24T08:46:05.854Z,1027.3
2019-03-24T08:47:04.975Z,1027.37
2019-03-24T08:48:04.843Z,1027.38
2019-03-24T08:49:04.933Z,1027.35
2019-03-24T08:50:04.843Z,1027.32
2019-03-24T08:51:04.864Z,1027.29
2019-03-24T08:52:04.713Z,1027.28
2019-03-24T08:53:04.802Z,1027.27
2019-03-24T08:54:04.685Z,1027.28
2019-03-24T08:55:04.724Z,1027.23
2019-03-24T08:56:04.784Z,1027.23
2019-03-24T08:57:04.882Z,1027.24
2019-03-24T08:58:04.758Z,1027.18
2019-03-24T08:59:04.768Z,1027.14
2019-03-24T09:00:04.807Z,1027.12
2019-03-24T09:01:04.802Z,1027.1
2019-03-24T09:02:04.926Z,1027.11
2019-03-24T09:03:04.927Z,1027.12
2019-03-24T09:04:04.837Z,1027.07
2019-03-24T09:05:04.860Z,1027.08
2019-03-24T09:06:04.966Z,1027.08
2019-03-24T09:07:05.182Z,1027.08
2019-03-24T09:08:05.004Z,1027.02
2019-03-24T09:09:04.744Z,1027.01
2019-03-24T09:10:04.698Z,1026.95
2019-03-24T09:11:04.709Z,1027
2019-03-24T09:12:04.663Z,1026.96
2019-03-24T09:13:04.760Z,1026.97
2019-03-24T09:14:04.702Z,1026.93
2019-03-24T09:15:04.705Z,1026.91
2019-03-24T09:16:04.927Z,1026.92
2019-03-24T09:17:04.860Z,1026.93
2019-03-24T09:18:04.843Z,1026.91
2019-03-24T09:19:04.791Z,1026.94
2019-03-24T09:20:04.799Z,1026.94
2019-03-24T09:21:04.813Z,1026.98
2019-03-24T09:22:04.968Z,1026.99
2019-03-24T09:23:04.877Z,1026.96
2019-03-24T09:24:04.910Z,1026.94
2019-03-24T09:25:04.867Z,1026.95
2019-03-24T09:26:04.664Z,1026.92
2019-03-24T09:27:04.698Z,1026.89
2019-03-24T09:28:04.915Z,1026.89
2019-03-24T09:29:05.063Z,1026.87
2019-03-24T09:30:04.740Z,1026.86
2019-03-24T09:31:04.723Z,1026.81
2019-03-24T09:32:04.840Z,1026.82
2019-03-24T09:33:04.843Z,1026.81
2019-03-24T09:34:04.756Z,1026.75
2019-03-24T09:35:04.762Z,1026.79
2019-03-24T09:36:04.827Z,1026.72
2019-03-24T09:37:04.807Z,1026.71
2019-03-24T09:38:04.812Z,1026.7
2019-03-24T09:39:04.928Z,1026.7
2019-03-24T09:40:04.993Z,1026.71
2019-03-24T09:41:04.970Z,1026.72
2019-03-24T09:42:04.909Z,1026.71
2019-03-24T09:43:04.996Z,1026.68
2019-03-24T09:44:04.607Z,1026.72
2019-03-24T09:45:04.650Z,1026.71
2019-03-24T09:46:04.638Z,1026.67
2019-03-24T09:47:04.644Z,1026.66
2019-03-24T09:48:04.685Z,1026.66
2019-03-24T09:49:04.787Z,1026.64
2019-03-24T09:50:05.012Z,1026.67
2019-03-24T09:51:04.760Z,1026.64
2019-03-24T09:52:04.747Z,1026.65
2019-03-24T09:53:04.792Z,1026.65
2019-03-24T09:54:04.979Z,1026.62
2019-03-24T09:55:04.845Z,1026.62
2019-03-24T09:56:04.885Z,1026.56
2019-03-24T09:57:04.874Z,1026.63
2019-03-24T09:58:04.986Z,1026.62
2019-03-24T09:59:04.927Z,1026.6
2019-03-24T10:00:04.963Z,1026.6
2019-03-24T10:01:04.658Z,1026.59
2019-03-24T10:02:04.689Z,1026.59
2019-03-24T10:03:04.701Z,1026.56
2019-03-24T10:04:04.750Z,1026.57
2019-03-24T10:05:04.709Z,1026.58
2019-03-24T10:06:04.731Z,1026.55
2019-03-24T10:07:04.799Z,1026.6
2019-03-24T10:08:04.760Z,1026.58
2019-03-24T10:09:04.916Z,1026.55
2019-03-24T10:10:04.793Z,1026.54
2019-03-24T10:11:05.655Z,1026.57
2019-03-24T10:12:04.815Z,1026.53
2019-03-24T10:13:04.936Z,1026.49
2019-03-24T10:14:04.934Z,1026.47
2019-03-24T10:15:04.850Z,1026.46
2019-03-24T10:16:04.840Z,1026.46
2019-03-24T10:17:04.970Z,1026.43
2019-03-24T10:18:04.598Z,1026.41
2019-03-24T10:19:14.616Z,1026.42
2019-03-24T10:20:04.644Z,1026.44
2019-03-24T10:21:04.800Z,1026.43
2019-03-24T10:22:04.734Z,1026.44
2019-03-24T10:23:04.673Z,1026.43
2019-03-24T10:24:04.728Z,1026.4
2019-03-24T10:25:04.690Z,1026.4
2019-03-24T10:26:04.817Z,1026.43
2019-03-24T10:27:04.737Z,1026.38
2019-03-24T10:28:04.776Z,1026.38
2019-03-24T10:29:04.777Z,1026.34
2019-03-24T10:30:04.796Z,1026.34
2019-03-24T10:31:04.780Z,1026.35
2019-03-24T10:32:04.803Z,1026.35
2019-03-24T10:33:04.986Z,1026.38
2019-03-24T10:34:04.931Z,1026.38
2019-03-24T10:35:04.646Z,1026.33
2019-03-24T10:36:04.753Z,1026.32
2019-03-24T10:37:04.650Z,1026.35
2019-03-24T10:38:04.737Z,1026.36
2019-03-24T10:39:04.745Z,1026.34
2019-03-24T10:40:04.764Z,1026.33
2019-03-24T10:41:04.842Z,1026.34
2019-03-24T10:42:04.841Z,1026.31
2019-03-24T10:43:04.734Z,1026.29
2019-03-24T10:44:04.772Z,1026.29
2019-03-24T10:45:04.903Z,1026.26
2019-03-24T10:46:04.920Z,1026.27
2019-03-24T10:47:04.863Z,1026.26
2019-03-24T10:48:04.831Z,1026.24
2019-03-24T10:49:04.833Z,1026.23
2019-03-24T10:50:05.224Z,1026.24
2019-03-24T10:51:04.876Z,1026.23
2019-03-24T10:52:04.763Z,1026.21
2019-03-24T10:53:06.146Z,1026.21
2019-03-24T10:54:04.964Z,1026.21
2019-03-24T10:55:04.740Z,1026.19
2019-03-24T10:56:04.647Z,1026.19
2019-03-24T10:57:05.565Z,1026.14
2019-03-24T10:58:04.682Z,1026.17
2019-03-24T10:59:04.667Z,1026.14
2019-03-24T11:00:04.853Z,1026.15
2019-03-24T11:01:04.717Z,1026.15
2019-03-24T11:02:04.736Z,1026.11
2019-03-24T11:03:04.788Z,1026.11
2019-03-24T11:04:04.761Z,1026.09
2019-03-24T11:05:05.168Z,1026.11
2019-03-24T11:06:04.930Z,1026.09
2019-03-24T11:07:04.773Z,1026.09
2019-03-24T11:08:04.959Z,1026.09
2019-03-24T11:09:04.841Z,1026.07
2019-03-24T11:10:05.777Z,1026.07
2019-03-24T11:11:04.631Z,1026.09
2019-03-24T11:12:04.680Z,1026.08
2019-03-24T11:13:04.749Z,1026.09
2019-03-24T11:14:04.714Z,1026.06
2019-03-24T11:15:05.113Z,1026.07
2019-03-24T11:16:04.682Z,1026.07
2019-03-24T11:17:04.790Z,1026.08
2019-03-24T11:18:04.805Z,1026.06
2019-03-24T11:19:04.750Z,1026.04
2019-03-24T11:20:04.759Z,1026.06
2019-03-24T11:21:04.745Z,1026.05
2019-03-24T11:22:04.848Z,1026.08
2019-03-24T11:23:04.878Z,1026.04
2019-03-24T11:24:04.790Z,1026.06
2019-03-24T11:25:04.826Z,1026.01
2019-03-24T11:26:04.920Z,1026.04
2019-03-24T11:27:04.867Z,1026.02
2019-03-24T11:28:04.869Z,1026
2019-03-24T11:29:04.729Z,1026.02
2019-03-24T11:30:04.658Z,1026
2019-03-24T11:31:04.632Z,1025.98
2019-03-24T11:32:04.625Z,1025.96
2019-03-24T11:33:04.626Z,1025.93
2019-03-24T11:34:04.698Z,1025.89
2019-03-24T11:35:04.772Z,1025.89
2019-03-24T11:36:04.667Z,1025.87
2019-03-24T11:37:04.882Z,1025.84
2019-03-24T11:38:04.667Z,1025.89
2019-03-24T11:39:04.720Z,1025.87
2019-03-24T11:40:04.932Z,1025.85
2019-03-24T11:41:04.775Z,1025.81
2019-03-24T11:42:04.808Z,1025.81
2019-03-24T11:43:04.774Z,1025.8
2019-03-24T11:44:04.775Z,1025.82
2019-03-24T11:45:04.950Z,1025.83
2019-03-24T11:46:04.821Z,1025.81
2019-03-24T11:47:04.903Z,1025.83
2019-03-24T11:48:04.632Z,1025.84
2019-03-24T11:49:04.640Z,1025.8
2019-03-24T11:50:04.732Z,1025.78
2019-03-24T11:51:04.650Z,1025.77
2019-03-24T11:52:04.665Z,1025.73
2019-03-24T11:53:04.780Z,1025.68
2019-03-24T11:54:04.704Z,1025.73
2019-03-24T11:55:04.714Z,1025.67
2019-03-24T11:56:04.777Z,1025.72
2019-03-24T11:57:04.731Z,1025.65
2019-03-24T11:58:06.608Z,1025.65
2019-03-24T11:59:04.731Z,1025.62
2019-03-24T12:00:04.786Z,1025.64
2019-03-24T12:01:04.879Z,1025.59
2019-03-24T12:02:04.893Z,1025.62
2019-03-24T12:03:04.818Z,1025.55
2019-03-24T12:04:04.919Z,1025.55
2019-03-24T12:05:04.821Z,1025.54
2019-03-24T12:06:15.213Z,1025.59
2019-03-24T12:07:04.601Z,1025.54
2019-03-24T12:08:04.755Z,1025.5